createdAt,value
2022-07-27T00:00:00.148Z,0.00
2022-07-27T00:10:00.176Z,0.00
2022-07-27T00:20:00.151Z,0.00
2022-07-27T00:30:00.126Z,0.00
2022-07-27T00:40:00.119Z,0.00
2022-07-27T00:50:00.141Z,0.00
2022-07-27T01:00:00.171Z,0.00
2022-07-27T01:10:00.222Z,0.00
2022-07-27T01:20:00.159Z,0.00
2022-07-27T01:30:00.083Z,0.00
2022-07-27T01:40:00.096Z,0.00
2022-07-27T01:50:01.255Z,0.00
2022-07-27T02:00:00.098Z,0.00
2022-07-27T02:10:00.117Z,0.00
2022-07-27T02:20:00.110Z,0.00
2022-07-27T02:30:00.069Z,0.00
2022-07-27T02:40:00.307Z,0.57
2022-07-27T02:50:00.145Z,2.60
2022-07-27T03:00:01.246Z,9.62
2022-07-27T03:10:00.101Z,15.00
2022-07-27T03:20:00.150Z,38.33
2022-07-27T03:30:00.085Z,75.00
2022-07-27T03:40:00.104Z,123.33
2022-07-27T03:50:00.151Z,391.25
2022-07-27T04:00:00.148Z,497.08
2022-07-27T04:10:00.122Z,285.00
2022-07-27T04:20:00.149Z,313.33
2022-07-27T04:30:00.113Z,395.00
2022-07-27T04:40:00.100Z,972.92
2022-07-27T04:50:00.294Z,688.33
2022-07-27T05:00:00.105Z,1713.75
2022-07-27T05:10:00.096Z,1507.50
2022-07-27T05:20:00.163Z,653.33
2022-07-27T05:30:00.119Z,635.00
2022-07-27T05:40:00.108Z,1305.42
2022-07-27T05:50:01.465Z,1251.67
2022-07-27T06:00:00.120Z,1554.17
2022-07-27T06:10:00.134Z,765.00
2022-07-27T06:20:00.101Z,1763.75
2022-07-27T06:30:00.109Z,2040.00
2022-07-27T06:40:00.144Z,3110.83
2022-07-27T06:50:01.607Z,3851.67
2022-07-27T07:00:01.443Z,2238.33
2022-07-27T07:10:00.121Z,2420.00
2022-07-27T07:20:00.120Z,2155.00
2022-07-27T07:30:00.105Z,4723.33
2022-07-27T07:40:12.906Z,3410.00
2022-07-27T07:50:00.117Z,3701.67
2022-07-27T08:00:00.115Z,3625.00
2022-07-27T08:10:00.150Z,5583.33
2022-07-27T08:20:00.112Z,5509.58
2022-07-27T08:30:00.101Z,5777.08
2022-07-27T08:50:00.230Z,3463.33
2022-07-27T09:00:00.209Z,6411.67
2022-07-27T09:10:00.226Z,4315.42
2022-07-27T09:20:00.166Z,7191.67
2022-07-27T09:30:00.158Z,6107.08
2022-07-27T09:40:00.156Z,4373.75
2022-07-27T09:50:00.129Z,3326.25
2022-07-27T10:00:00.102Z,7564.58
2022-07-27T10:10:00.137Z,10528.75
2022-07-27T10:20:00.123Z,10410.83
2022-07-27T10:30:00.142Z,9612.50
2022-07-27T10:40:03.848Z,13341.25
2022-07-27T10:50:00.132Z,37135.83
2022-07-27T11:00:09.221Z,14812.50
2022-07-27T11:10:03.870Z,10289.17
2022-07-27T11:20:00.149Z,13853.33
2022-07-27T11:30:00.138Z,10300.83
2022-07-27T11:40:04.213Z,39759.17
2022-07-27T11:50:00.208Z,13448.33
2022-07-27T12:00:00.146Z,7422.50
2022-07-27T12:10:00.204Z,6072.08
2022-07-27T12:20:00.160Z,3463.33
2022-07-27T12:30:00.177Z,17990.00
2022-07-27T12:40:00.146Z,12221.25
2022-07-27T12:50:00.115Z,4451.67
2022-07-27T13:00:00.139Z,11423.33
2022-07-27T13:10:01.686Z,8138.33
2022-07-27T13:20:00.113Z,12413.33
2022-07-27T13:30:00.189Z,10074.17
2022-07-27T13:40:00.174Z,22372.92
2022-07-27T13:50:00.120Z,30678.33
2022-07-27T14:00:00.144Z,9993.33
2022-07-27T14:10:00.122Z,9150.42
2022-07-27T14:20:00.120Z,6361.25
2022-07-27T14:30:00.240Z,12144.17
2022-07-27T14:40:00.185Z,6466.25
2022-07-27T14:50:00.261Z,8163.75
2022-07-27T15:00:00.160Z,15010.83
2022-07-27T15:10:00.114Z,9783.33
2022-07-27T15:20:00.105Z,11184.17
2022-07-27T15:30:00.141Z,28089.17
2022-07-27T15:40:00.110Z,15520.83
2022-07-27T15:50:00.102Z,9581.25
2022-07-27T16:00:00.156Z,7880.83
2022-07-27T16:10:00.134Z,5949.58
2022-07-27T16:20:01.426Z,10593.33
2022-07-27T16:30:00.124Z,7467.92
2022-07-27T16:40:00.122Z,23306.67
2022-07-27T16:50:00.128Z,5211.67
2022-07-27T17:00:00.457Z,7665.83
2022-07-27T17:10:00.224Z,15704.17
2022-07-27T17:20:00.104Z,3280.83
2022-07-27T17:30:00.138Z,2553.33
2022-07-27T17:40:00.118Z,2060.83
2022-07-27T17:50:00.134Z,1991.67
2022-07-27T18:00:01.988Z,1632.92
2022-07-27T18:10:00.152Z,1608.33
2022-07-27T18:20:00.119Z,1232.50
2022-07-27T18:30:00.136Z,831.67
2022-07-27T18:40:00.154Z,601.67
2022-07-27T18:50:00.126Z,402.50
2022-07-27T19:00:00.356Z,232.50
2022-07-27T19:10:00.136Z,113.75
2022-07-27T19:20:00.139Z,20.00
2022-07-27T19:30:00.146Z,12.90
2022-07-27T19:40:09.760Z,3.28
2022-07-27T19:50:00.103Z,0.68
2022-07-27T20:00:00.161Z,0.00
2022-07-27T20:10:00.131Z,0.00
2022-07-27T20:20:00.124Z,0.00
2022-07-27T20:30:00.133Z,0.00
2022-07-27T20:40:00.115Z,0.00
2022-07-27T20:50:00.119Z,0.00
2022-07-27T21:00:00.161Z,0.00
2022-07-27T21:10:00.145Z,0.00
2022-07-27T21:20:00.123Z,0.00
2022-07-27T21:30:00.156Z,0.00
2022-07-27T21:40:00.121Z,0.00
2022-07-27T21:50:01.242Z,0.00
2022-07-27T22:00:01.167Z,0.00
2022-07-27T22:10:00.121Z,0.00
2022-07-27T22:20:00.145Z,0.00
2022-07-27T22:30:00.121Z,0.00
2022-07-27T22:40:00.138Z,0.00
2022-07-27T22:50:00.149Z,0.00
2022-07-27T23:00:00.138Z,0.00
2022-07-27T23:10:00.113Z,0.00
2022-07-27T23:20:00.127Z,0.00
2022-07-27T23:30:00.130Z,0.00
2022-07-27T23:40:00.104Z,0.00
2022-07-27T23:50:00.140Z,0.00
